QTR7L OMDB-OTHH
Flight info
| Callsign | QTR7L |
|---|---|
| Flight time | 1h 7m |
| Altitude | 27999 |
| Route | KUTLI L519 ATUDO M318 GOLGU M550 BOPEK M440 ITULU Y432 LADBO T142 LAEEB |
| Aircraft | B77W/H-SDE1E2E3FGHIJ2J3J4J5M1RWXY/LB1D1 |
Departure
| Time | 2026-05-06 12:46 |
|---|---|
| Airport | Dubai International Airport (OMDB) |
Arrival
| Time | 2026-05-06 13:54 |
|---|---|
| Airport | Hamad International Airport (OTHH) |
| Time | Latitude | Longitude | Altitude | Speed | Heading |
|---|---|---|---|---|---|
| 2026-05-06 12:27 | 25.25637 | 55.34825 | 27 ft | 0 kts | 303° |
| 2026-05-06 12:30 | 25.25630 | 55.34837 | 27 ft | 3 kts | 301° |
| 2026-05-06 12:30 | 25.25621 | 55.34853 | 26 ft | 2 kts | 303° |
| 2026-05-06 12:31 | 25.25610 | 55.34869 | 25 ft | 3 kts | 319° |
| 2026-05-06 12:31 | 25.25597 | 55.34879 | 25 ft | 3 kts | 343° |
| 2026-05-06 12:31 | 25.25581 | 55.34882 | 25 ft | 3 kts | 9° |
| 2026-05-06 12:31 | 25.25564 | 55.34877 | 25 ft | 3 kts | 27° |
| 2026-05-06 12:32 | 25.25546 | 55.34866 | 24 ft | 3 kts | 33° |
| 2026-05-06 12:32 | 25.25534 | 55.34857 | 25 ft | 1 kts | 31° |
| 2026-05-06 12:32 | 25.25530 | 55.34854 | 25 ft | 0 kts | 31° |
| 2026-05-06 12:36 | 25.25531 | 55.34855 | 25 ft | 1 kts | 31° |
| 2026-05-06 12:36 | 25.25575 | 55.34885 | 25 ft | 10 kts | 31° |
| 2026-05-06 12:37 | 25.25674 | 55.34949 | 27 ft | 19 kts | 31° |
| 2026-05-06 12:37 | 25.25788 | 55.35026 | 27 ft | 19 kts | 32° |
| 2026-05-06 12:37 | 25.25902 | 55.35103 | 27 ft | 19 kts | 33° |
| 2026-05-06 12:37 | 25.26015 | 55.35176 | 27 ft | 19 kts | 30° |
| 2026-05-06 12:38 | 25.26115 | 55.35246 | 27 ft | 14 kts | 40° |
| 2026-05-06 12:38 | 25.26114 | 55.35320 | 27 ft | 9 kts | 129° |
| 2026-05-06 12:38 | 25.26061 | 55.35403 | 27 ft | 16 kts | 122° |
| 2026-05-06 12:38 | 25.26001 | 55.35508 | 27 ft | 16 kts | 122° |
| 2026-05-06 12:39 | 25.25942 | 55.35615 | 27 ft | 16 kts | 121° |
| 2026-05-06 12:39 | 25.25882 | 55.35723 | 27 ft | 16 kts | 121° |
| 2026-05-06 12:39 | 25.25823 | 55.35830 | 27 ft | 16 kts | 122° |
| 2026-05-06 12:39 | 25.25763 | 55.35936 | 27 ft | 16 kts | 122° |
| 2026-05-06 12:40 | 25.25703 | 55.36042 | 27 ft | 16 kts | 122° |
| 2026-05-06 12:40 | 25.25643 | 55.36149 | 27 ft | 16 kts | 121° |
| 2026-05-06 12:40 | 25.25584 | 55.36257 | 27 ft | 16 kts | 121° |
| 2026-05-06 12:40 | 25.25526 | 55.36364 | 27 ft | 16 kts | 120° |
| 2026-05-06 12:41 | 25.25467 | 55.36472 | 27 ft | 16 kts | 121° |
| 2026-05-06 12:41 | 25.25407 | 55.36578 | 27 ft | 16 kts | 122° |
| 2026-05-06 12:41 | 25.25347 | 55.36685 | 27 ft | 16 kts | 121° |
| 2026-05-06 12:41 | 25.25287 | 55.36792 | 27 ft | 16 kts | 122° |
| 2026-05-06 12:42 | 25.25228 | 55.36899 | 27 ft | 16 kts | 121° |
| 2026-05-06 12:42 | 25.25170 | 55.37006 | 27 ft | 16 kts | 121° |
| 2026-05-06 12:42 | 25.25111 | 55.37113 | 27 ft | 16 kts | 122° |
| 2026-05-06 12:42 | 25.25051 | 55.37220 | 27 ft | 16 kts | 121° |
| 2026-05-06 12:43 | 25.24993 | 55.37328 | 27 ft | 16 kts | 120° |
| 2026-05-06 12:43 | 25.24933 | 55.37435 | 27 ft | 16 kts | 122° |
| 2026-05-06 12:43 | 25.24872 | 55.37541 | 27 ft | 16 kts | 122° |
| 2026-05-06 12:43 | 25.24812 | 55.37648 | 27 ft | 16 kts | 120° |
| 2026-05-06 12:44 | 25.24755 | 55.37756 | 27 ft | 16 kts | 121° |
| 2026-05-06 12:44 | 25.24713 | 55.37836 | 27 ft | 8 kts | 108° |
| 2026-05-06 12:44 | 25.24742 | 55.37886 | 27 ft | 9 kts | 29° |
| 2026-05-06 12:44 | 25.24794 | 55.37919 | 27 ft | 9 kts | 31° |
| 2026-05-06 12:45 | 25.24845 | 55.37937 | 27 ft | 7 kts | 341° |
| 2026-05-06 12:45 | 25.24868 | 55.37911 | 27 ft | 0 kts | 300° |
| 2026-05-06 12:45 | 25.25083 | 55.37523 | 27 ft | 90 kts | 302° |
| 2026-05-06 12:46 | 25.25522 | 55.36737 | 27 ft | 152 kts | 302° |
| 2026-05-06 12:46 | 25.26140 | 55.35618 | 276 ft | 177 kts | 302° |
| 2026-05-06 12:46 | 25.26763 | 55.34464 | 962 ft | 174 kts | 303° |
| 2026-05-06 12:46 | 25.27416 | 55.33295 | 1437 ft | 186 kts | 302° |
| 2026-05-06 12:47 | 25.28146 | 55.31991 | 1706 ft | 212 kts | 301° |
| 2026-05-06 12:47 | 25.28922 | 55.30575 | 2197 ft | 220 kts | 295° |
| 2026-05-06 12:47 | 25.29181 | 55.28885 | 2620 ft | 227 kts | 256° |
| 2026-05-06 12:47 | 25.28622 | 55.27267 | 3261 ft | 226 kts | 244° |
| 2026-05-06 12:48 | 25.27958 | 55.25693 | 3838 ft | 233 kts | 243° |
| 2026-05-06 12:48 | 25.27259 | 55.24046 | 4468 ft | 239 kts | 243° |
| 2026-05-06 12:48 | 25.26548 | 55.22377 | 5137 ft | 242 kts | 243° |
| 2026-05-06 12:48 | 25.25829 | 55.20690 | 5832 ft | 244 kts | 242° |
| 2026-05-06 12:49 | 25.25099 | 55.18978 | 6505 ft | 248 kts | 242° |
| 2026-05-06 12:49 | 25.24361 | 55.17244 | 7140 ft | 251 kts | 242° |
| 2026-05-06 12:49 | 25.23558 | 55.15489 | 7599 ft | 265 kts | 238° |
| 2026-05-06 12:49 | 25.22596 | 55.13658 | 7911 ft | 284 kts | 237° |
| 2026-05-06 12:50 | 25.21579 | 55.11742 | 8511 ft | 292 kts | 238° |
| 2026-05-06 12:50 | 25.20559 | 55.09804 | 9170 ft | 300 kts | 238° |
| 2026-05-06 12:50 | 25.19600 | 55.07744 | 9875 ft | 305 kts | 245° |
| 2026-05-06 12:50 | 25.18786 | 55.05535 | 10564 ft | 312 kts | 247° |
| 2026-05-06 12:51 | 25.17968 | 55.03223 | 10860 ft | 335 kts | 248° |
| 2026-05-06 12:51 | 25.17082 | 55.00774 | 11074 ft | 360 kts | 247° |
| 2026-05-06 12:51 | 25.16111 | 54.98150 | 11590 ft | 373 kts | 247° |
| 2026-05-06 12:51 | 25.14889 | 54.95647 | 12329 ft | 375 kts | 230° |
| 2026-05-06 12:52 | 25.12913 | 54.93797 | 13244 ft | 377 kts | 208° |
| 2026-05-06 12:52 | 25.10456 | 54.92778 | 13972 ft | 382 kts | 189° |
| 2026-05-06 12:52 | 25.07791 | 54.92605 | 14808 ft | 384 kts | 179° |
| 2026-05-06 12:52 | 25.05095 | 54.92648 | 15552 ft | 390 kts | 179° |
| 2026-05-06 12:53 | 25.02364 | 54.92697 | 16288 ft | 396 kts | 178° |
| 2026-05-06 12:53 | 24.99605 | 54.92845 | 17034 ft | 402 kts | 176° |
| 2026-05-06 12:53 | 24.96819 | 54.93064 | 17811 ft | 407 kts | 175° |
| 2026-05-06 12:53 | 24.93980 | 54.93286 | 18538 ft | 411 kts | 176° |
| 2026-05-06 12:54 | 24.91109 | 54.93489 | 19221 ft | 416 kts | 177° |
| 2026-05-06 12:54 | 24.88212 | 54.93657 | 19874 ft | 416 kts | 181° |
| 2026-05-06 12:54 | 24.85340 | 54.93158 | 20382 ft | 423 kts | 201° |
| 2026-05-06 12:54 | 24.82706 | 54.91734 | 21049 ft | 421 kts | 210° |
| 2026-05-06 12:55 | 24.80139 | 54.90146 | 21700 ft | 426 kts | 211° |
| 2026-05-06 12:55 | 24.77543 | 54.88547 | 22407 ft | 430 kts | 211° |
| 2026-05-06 12:55 | 24.74909 | 54.86945 | 23078 ft | 434 kts | 211° |
| 2026-05-06 12:55 | 24.72284 | 54.85371 | 23704 ft | 436 kts | 210° |
| 2026-05-06 12:56 | 24.69611 | 54.83781 | 24304 ft | 438 kts | 210° |
| 2026-05-06 12:56 | 24.66944 | 54.82163 | 24875 ft | 440 kts | 212° |
| 2026-05-06 12:56 | 24.64279 | 54.80465 | 25494 ft | 442 kts | 212° |
| 2026-05-06 12:56 | 24.61649 | 54.78762 | 26271 ft | 438 kts | 213° |
| 2026-05-06 12:57 | 24.59041 | 54.77077 | 27129 ft | 434 kts | 213° |
| 2026-05-06 12:57 | 24.56421 | 54.75397 | 27676 ft | 434 kts | 213° |
| 2026-05-06 12:57 | 24.53809 | 54.73732 | 27744 ft | 433 kts | 213° |
| 2026-05-06 12:57 | 24.51250 | 54.72086 | 27748 ft | 431 kts | 213° |
| 2026-05-06 12:58 | 24.48677 | 54.70410 | 27752 ft | 431 kts | 213° |
| 2026-05-06 12:58 | 24.46100 | 54.68728 | 27751 ft | 431 kts | 213° |
| 2026-05-06 12:58 | 24.43515 | 54.67047 | 27750 ft | 431 kts | 213° |
| 2026-05-06 12:58 | 24.40922 | 54.65388 | 27747 ft | 432 kts | 212° |
| 2026-05-06 12:59 | 24.38318 | 54.63745 | 27750 ft | 432 kts | 212° |
| 2026-05-06 12:59 | 24.35718 | 54.62105 | 27746 ft | 432 kts | 212° |
| 2026-05-06 12:59 | 24.33114 | 54.60459 | 27747 ft | 432 kts | 212° |
| 2026-05-06 12:59 | 24.30517 | 54.58815 | 27750 ft | 432 kts | 212° |
| 2026-05-06 13:00 | 24.27935 | 54.57135 | 27744 ft | 431 kts | 216° |
| 2026-05-06 13:00 | 24.25604 | 54.55114 | 27736 ft | 428 kts | 226° |
| 2026-05-06 13:00 | 24.23624 | 54.52749 | 27746 ft | 426 kts | 233° |
| 2026-05-06 13:00 | 24.21885 | 54.50113 | 27735 ft | 425 kts | 240° |
| 2026-05-06 13:01 | 24.20419 | 54.47299 | 27748 ft | 425 kts | 242° |
| 2026-05-06 13:01 | 24.18980 | 54.44464 | 27741 ft | 426 kts | 242° |
| 2026-05-06 13:01 | 24.17544 | 54.41627 | 27739 ft | 426 kts | 242° |
| 2026-05-06 13:01 | 24.16105 | 54.38796 | 27740 ft | 426 kts | 242° |
| 2026-05-06 13:02 | 24.14659 | 54.35966 | 27739 ft | 426 kts | 242° |
| 2026-05-06 13:02 | 24.13209 | 54.33140 | 27739 ft | 426 kts | 242° |
| 2026-05-06 13:02 | 24.11754 | 54.30315 | 27739 ft | 426 kts | 242° |
| 2026-05-06 13:02 | 24.10320 | 54.27535 | 27735 ft | 426 kts | 242° |
| 2026-05-06 13:03 | 24.08865 | 54.24716 | 27734 ft | 426 kts | 241° |
| 2026-05-06 13:03 | 24.07407 | 54.21894 | 27737 ft | 426 kts | 241° |
| 2026-05-06 13:03 | 24.05948 | 54.19071 | 27737 ft | 426 kts | 241° |
| 2026-05-06 13:03 | 24.04490 | 54.16252 | 27738 ft | 426 kts | 241° |
| 2026-05-06 13:04 | 24.03031 | 54.13429 | 27737 ft | 426 kts | 241° |
| 2026-05-06 13:04 | 24.01573 | 54.10612 | 27741 ft | 426 kts | 241° |
| 2026-05-06 13:04 | 24.00133 | 54.07831 | 27739 ft | 426 kts | 241° |
| 2026-05-06 13:04 | 23.98669 | 54.05018 | 27733 ft | 426 kts | 241° |
| 2026-05-06 13:05 | 23.97192 | 54.02208 | 27737 ft | 426 kts | 241° |
| 2026-05-06 13:05 | 23.95712 | 53.99407 | 27740 ft | 426 kts | 241° |
| 2026-05-06 13:05 | 23.94231 | 53.96606 | 27739 ft | 426 kts | 241° |
| 2026-05-06 13:05 | 23.92751 | 53.93807 | 27748 ft | 426 kts | 241° |
| 2026-05-06 13:06 | 23.91268 | 53.91001 | 27740 ft | 426 kts | 241° |
| 2026-05-06 13:06 | 23.89786 | 53.88197 | 27738 ft | 426 kts | 241° |
| 2026-05-06 13:06 | 23.88306 | 53.85396 | 27739 ft | 426 kts | 241° |
| 2026-05-06 13:06 | 23.86847 | 53.82637 | 27737 ft | 426 kts | 241° |
| 2026-05-06 13:07 | 23.85366 | 53.79836 | 27742 ft | 426 kts | 241° |
| 2026-05-06 13:07 | 23.83884 | 53.77036 | 27741 ft | 426 kts | 241° |
| 2026-05-06 13:07 | 23.82403 | 53.74240 | 27742 ft | 426 kts | 241° |
| 2026-05-06 13:07 | 23.80918 | 53.71437 | 27747 ft | 425 kts | 240° |
| 2026-05-06 13:08 | 23.79438 | 53.68645 | 27743 ft | 426 kts | 241° |
| 2026-05-06 13:08 | 23.77954 | 53.65846 | 27744 ft | 426 kts | 240° |
| 2026-05-06 13:08 | 23.76470 | 53.63050 | 27744 ft | 426 kts | 240° |
| 2026-05-06 13:08 | 23.75006 | 53.60292 | 27745 ft | 426 kts | 240° |
| 2026-05-06 13:09 | 23.73525 | 53.57504 | 27745 ft | 426 kts | 240° |
| 2026-05-06 13:09 | 23.72040 | 53.54709 | 27744 ft | 426 kts | 240° |
| 2026-05-06 13:09 | 23.70553 | 53.51914 | 27745 ft | 426 kts | 241° |
| 2026-05-06 13:09 | 23.69069 | 53.49120 | 27743 ft | 425 kts | 241° |
| 2026-05-06 13:10 | 23.67589 | 53.46328 | 27740 ft | 425 kts | 241° |
| 2026-05-06 13:10 | 23.66110 | 53.43535 | 27742 ft | 425 kts | 241° |
| 2026-05-06 13:10 | 23.64627 | 53.40736 | 27745 ft | 425 kts | 241° |
| 2026-05-06 13:10 | 23.63150 | 53.37950 | 27743 ft | 425 kts | 241° |
| 2026-05-06 13:11 | 23.61691 | 53.35200 | 27743 ft | 425 kts | 241° |
| 2026-05-06 13:11 | 23.60427 | 53.32818 | 27743 ft | 425 kts | 241° |
| 2026-05-06 13:11 | 23.58981 | 53.30096 | 27742 ft | 425 kts | 241° |
| 2026-05-06 13:11 | 23.57500 | 53.27309 | 27739 ft | 425 kts | 241° |
| 2026-05-06 13:12 | 23.56022 | 53.24530 | 27741 ft | 425 kts | 241° |
| 2026-05-06 13:12 | 23.54541 | 53.21746 | 27741 ft | 425 kts | 241° |
| 2026-05-06 13:12 | 23.53052 | 53.18949 | 27739 ft | 425 kts | 241° |
| 2026-05-06 13:12 | 23.51571 | 53.16169 | 27738 ft | 425 kts | 241° |
| 2026-05-06 13:13 | 23.50093 | 53.13396 | 27736 ft | 424 kts | 241° |
| 2026-05-06 13:13 | 23.48624 | 53.10641 | 27734 ft | 424 kts | 240° |
| 2026-05-06 13:13 | 23.47144 | 53.07865 | 27732 ft | 424 kts | 241° |
| 2026-05-06 13:13 | 23.45662 | 53.05090 | 27735 ft | 424 kts | 240° |
| 2026-05-06 13:14 | 23.44174 | 53.02303 | 27731 ft | 424 kts | 240° |
| 2026-05-06 13:14 | 23.42695 | 52.99532 | 27728 ft | 424 kts | 240° |
| 2026-05-06 13:14 | 23.41208 | 52.96753 | 27732 ft | 424 kts | 240° |
| 2026-05-06 13:14 | 23.39736 | 52.93974 | 27736 ft | 424 kts | 241° |
| 2026-05-06 13:15 | 23.38293 | 52.91177 | 27731 ft | 424 kts | 242° |
| 2026-05-06 13:15 | 23.36883 | 52.88416 | 27730 ft | 424 kts | 242° |
| 2026-05-06 13:15 | 23.35456 | 52.85617 | 27730 ft | 424 kts | 242° |
| 2026-05-06 13:15 | 23.34023 | 52.82813 | 27732 ft | 424 kts | 242° |
| 2026-05-06 13:16 | 23.32590 | 52.80015 | 27733 ft | 423 kts | 242° |
| 2026-05-06 13:16 | 23.31151 | 52.77214 | 27731 ft | 423 kts | 242° |
| 2026-05-06 13:16 | 23.29712 | 52.74416 | 27729 ft | 423 kts | 242° |
| 2026-05-06 13:16 | 23.28277 | 52.71629 | 27729 ft | 423 kts | 242° |
| 2026-05-06 13:17 | 23.26841 | 52.68840 | 27731 ft | 423 kts | 242° |
| 2026-05-06 13:17 | 23.25399 | 52.66043 | 27729 ft | 423 kts | 242° |
| 2026-05-06 13:17 | 23.23981 | 52.63293 | 27725 ft | 423 kts | 242° |
| 2026-05-06 13:17 | 23.22542 | 52.60503 | 27725 ft | 423 kts | 242° |
| 2026-05-06 13:18 | 23.21105 | 52.57719 | 27726 ft | 423 kts | 242° |
| 2026-05-06 13:18 | 23.19663 | 52.54927 | 27725 ft | 423 kts | 242° |
| 2026-05-06 13:18 | 23.18291 | 52.52101 | 27726 ft | 423 kts | 245° |
| 2026-05-06 13:18 | 23.17182 | 52.49157 | 27720 ft | 422 kts | 251° |
| 2026-05-06 13:19 | 23.16255 | 52.46129 | 27729 ft | 422 kts | 252° |
| 2026-05-06 13:19 | 23.15318 | 52.43094 | 27724 ft | 422 kts | 251° |
| 2026-05-06 13:19 | 23.14375 | 52.40083 | 27726 ft | 422 kts | 251° |
| 2026-05-06 13:19 | 23.13416 | 52.37065 | 27724 ft | 422 kts | 251° |
| 2026-05-06 13:20 | 23.12453 | 52.34056 | 27722 ft | 422 kts | 251° |
| 2026-05-06 13:20 | 23.11501 | 52.31083 | 27724 ft | 422 kts | 251° |
| 2026-05-06 13:20 | 23.10540 | 52.28081 | 27722 ft | 422 kts | 251° |
| 2026-05-06 13:20 | 23.09573 | 52.25061 | 27721 ft | 422 kts | 251° |
| 2026-05-06 13:21 | 23.08610 | 52.22051 | 27721 ft | 422 kts | 251° |
| 2026-05-06 13:21 | 23.07649 | 52.19050 | 27722 ft | 422 kts | 251° |
| 2026-05-06 13:21 | 23.06683 | 52.16036 | 27719 ft | 422 kts | 251° |
| 2026-05-06 13:21 | 23.05721 | 52.13031 | 27724 ft | 421 kts | 251° |
| 2026-05-06 13:22 | 23.04771 | 52.10070 | 27723 ft | 421 kts | 251° |
| 2026-05-06 13:22 | 23.03807 | 52.07069 | 27723 ft | 421 kts | 251° |
| 2026-05-06 13:22 | 23.02884 | 52.04062 | 27711 ft | 419 kts | 256° |
| 2026-05-06 13:22 | 23.02526 | 52.00921 | 27731 ft | 420 kts | 269° |
| 2026-05-06 13:23 | 23.02779 | 51.97753 | 27729 ft | 422 kts | 279° |
| 2026-05-06 13:23 | 23.03621 | 51.94705 | 27719 ft | 423 kts | 290° |
| 2026-05-06 13:23 | 23.04773 | 51.91764 | 27733 ft | 425 kts | 291° |
| 2026-05-06 13:23 | 23.05962 | 51.88819 | 27730 ft | 426 kts | 291° |
| 2026-05-06 13:24 | 23.07151 | 51.85879 | 27729 ft | 426 kts | 291° |
| 2026-05-06 13:24 | 23.08332 | 51.82931 | 27725 ft | 426 kts | 291° |
| 2026-05-06 13:24 | 23.09485 | 51.80021 | 27727 ft | 425 kts | 291° |
| 2026-05-06 13:24 | 23.10648 | 51.77062 | 27728 ft | 425 kts | 291° |
| 2026-05-06 13:25 | 23.11801 | 51.74113 | 27732 ft | 425 kts | 291° |
| 2026-05-06 13:25 | 23.12957 | 51.71146 | 27729 ft | 425 kts | 291° |
| 2026-05-06 13:25 | 23.14105 | 51.68196 | 27729 ft | 425 kts | 290° |
| 2026-05-06 13:25 | 23.15257 | 51.65234 | 27729 ft | 425 kts | 290° |
| 2026-05-06 13:26 | 23.16409 | 51.62272 | 27727 ft | 425 kts | 290° |
| 2026-05-06 13:26 | 23.17544 | 51.59350 | 27729 ft | 425 kts | 290° |
| 2026-05-06 13:26 | 23.18708 | 51.56355 | 27732 ft | 425 kts | 290° |
| 2026-05-06 13:26 | 23.19839 | 51.53438 | 27734 ft | 425 kts | 290° |
| 2026-05-06 13:27 | 23.20989 | 51.50475 | 27730 ft | 425 kts | 290° |
| 2026-05-06 13:27 | 23.22137 | 51.47514 | 27735 ft | 425 kts | 290° |
| 2026-05-06 13:27 | 23.23282 | 51.44559 | 27734 ft | 425 kts | 290° |
| 2026-05-06 13:27 | 23.24431 | 51.41593 | 27729 ft | 425 kts | 290° |
| 2026-05-06 13:28 | 23.25575 | 51.38641 | 27734 ft | 425 kts | 290° |
| 2026-05-06 13:28 | 23.26719 | 51.35685 | 27729 ft | 425 kts | 290° |
| 2026-05-06 13:28 | 23.27865 | 51.32721 | 27732 ft | 425 kts | 290° |
| 2026-05-06 13:28 | 23.28995 | 51.29796 | 27736 ft | 425 kts | 290° |
| 2026-05-06 13:29 | 23.30137 | 51.26840 | 27733 ft | 425 kts | 290° |
| 2026-05-06 13:29 | 23.31279 | 51.23881 | 27734 ft | 424 kts | 290° |
| 2026-05-06 13:29 | 23.32743 | 51.21094 | 27735 ft | 428 kts | 307° |
| 2026-05-06 13:29 | 23.34935 | 51.18886 | 27740 ft | 436 kts | 323° |
| 2026-05-06 13:30 | 23.37650 | 51.17401 | 27751 ft | 443 kts | 337° |
| 2026-05-06 13:30 | 23.40684 | 51.16686 | 27730 ft | 450 kts | 354° |
| 2026-05-06 13:30 | 23.43807 | 51.16810 | 27759 ft | 452 kts | 1° |
| 2026-05-06 13:30 | 23.46928 | 51.17066 | 27750 ft | 455 kts | 1° |
| 2026-05-06 13:31 | 23.50084 | 51.17348 | 27753 ft | 456 kts | 1° |
| 2026-05-06 13:31 | 23.53247 | 51.17627 | 27746 ft | 456 kts | 1° |
| 2026-05-06 13:31 | 23.56405 | 51.17892 | 27744 ft | 455 kts | 1° |
| 2026-05-06 13:31 | 23.59564 | 51.18144 | 27749 ft | 455 kts | 1° |
| 2026-05-06 13:32 | 23.62728 | 51.18385 | 27752 ft | 455 kts | 1° |
| 2026-05-06 13:32 | 23.65886 | 51.18619 | 27753 ft | 455 kts | 0° |
| 2026-05-06 13:32 | 23.69040 | 51.18851 | 27753 ft | 455 kts | 0° |
| 2026-05-06 13:32 | 23.72208 | 51.19082 | 27748 ft | 455 kts | 0° |
| 2026-05-06 13:33 | 23.75325 | 51.19310 | 27755 ft | 455 kts | 0° |
| 2026-05-06 13:33 | 23.78478 | 51.19541 | 27755 ft | 455 kts | 0° |
| 2026-05-06 13:33 | 23.81639 | 51.19773 | 27760 ft | 455 kts | 0° |
| 2026-05-06 13:33 | 23.84807 | 51.20006 | 27761 ft | 455 kts | 0° |
| 2026-05-06 13:34 | 23.87960 | 51.20238 | 27763 ft | 455 kts | 0° |
| 2026-05-06 13:34 | 23.91118 | 51.20471 | 27744 ft | 455 kts | 0° |
| 2026-05-06 13:34 | 23.94273 | 51.20704 | 27745 ft | 450 kts | 0° |
| 2026-05-06 13:34 | 23.97342 | 51.20934 | 27738 ft | 435 kts | 0° |
| 2026-05-06 13:35 | 24.00335 | 51.21158 | 27646 ft | 430 kts | 0° |
| 2026-05-06 13:35 | 24.03295 | 51.21375 | 27212 ft | 431 kts | 0° |
| 2026-05-06 13:35 | 24.06279 | 51.21593 | 26794 ft | 428 kts | 0° |
| 2026-05-06 13:35 | 24.09240 | 51.21811 | 26362 ft | 425 kts | 1° |
| 2026-05-06 13:36 | 24.12181 | 51.22029 | 25952 ft | 422 kts | 1° |
| 2026-05-06 13:36 | 24.15103 | 51.22245 | 25531 ft | 419 kts | 1° |
| 2026-05-06 13:36 | 24.18010 | 51.22460 | 25108 ft | 417 kts | 1° |
| 2026-05-06 13:36 | 24.20885 | 51.22672 | 24676 ft | 414 kts | 1° |
| 2026-05-06 13:37 | 24.23755 | 51.22885 | 24264 ft | 412 kts | 1° |
| 2026-05-06 13:37 | 24.26573 | 51.23094 | 23849 ft | 410 kts | 2° |
| 2026-05-06 13:37 | 24.29414 | 51.23306 | 23428 ft | 407 kts | 3° |
| 2026-05-06 13:37 | 24.32183 | 51.23907 | 22934 ft | 407 kts | 18° |
| 2026-05-06 13:38 | 24.34743 | 51.25226 | 22506 ft | 406 kts | 31° |
| 2026-05-06 13:38 | 24.36963 | 51.27114 | 22065 ft | 402 kts | 42° |
| 2026-05-06 13:38 | 24.38975 | 51.29222 | 21651 ft | 399 kts | 43° |
| 2026-05-06 13:38 | 24.40958 | 51.31335 | 21231 ft | 397 kts | 43° |
| 2026-05-06 13:39 | 24.42934 | 51.33431 | 20808 ft | 394 kts | 43° |
| 2026-05-06 13:39 | 24.44884 | 51.35477 | 20391 ft | 392 kts | 43° |
| 2026-05-06 13:39 | 24.46862 | 51.37535 | 19970 ft | 390 kts | 43° |
| 2026-05-06 13:39 | 24.48830 | 51.39576 | 19555 ft | 388 kts | 43° |
| 2026-05-06 13:40 | 24.50792 | 51.41604 | 19126 ft | 386 kts | 41° |
| 2026-05-06 13:40 | 24.52875 | 51.43444 | 18685 ft | 385 kts | 34° |
| 2026-05-06 13:40 | 24.55126 | 51.45018 | 18272 ft | 383 kts | 28° |
| 2026-05-06 13:40 | 24.57495 | 51.46330 | 17792 ft | 381 kts | 26° |
| 2026-05-06 13:41 | 24.59880 | 51.47592 | 17341 ft | 378 kts | 25° |
| 2026-05-06 13:41 | 24.62243 | 51.48839 | 16911 ft | 376 kts | 25° |
| 2026-05-06 13:41 | 24.64553 | 51.50072 | 16500 ft | 373 kts | 25° |
| 2026-05-06 13:41 | 24.66871 | 51.51319 | 16060 ft | 370 kts | 25° |
| 2026-05-06 13:42 | 24.69170 | 51.52553 | 15657 ft | 367 kts | 25° |
| 2026-05-06 13:42 | 24.71490 | 51.53705 | 15247 ft | 364 kts | 23° |
| 2026-05-06 13:42 | 24.73803 | 51.54808 | 14837 ft | 361 kts | 22° |
| 2026-05-06 13:42 | 24.76105 | 51.55904 | 14416 ft | 359 kts | 22° |
| 2026-05-06 13:43 | 24.78384 | 51.57002 | 13987 ft | 357 kts | 23° |
| 2026-05-06 13:43 | 24.80655 | 51.58104 | 13569 ft | 356 kts | 23° |
| 2026-05-06 13:43 | 24.82881 | 51.59194 | 13108 ft | 351 kts | 25° |
| 2026-05-06 13:43 | 24.84842 | 51.60728 | 12748 ft | 346 kts | 45° |
| 2026-05-06 13:44 | 24.86245 | 51.62819 | 12649 ft | 335 kts | 58° |
| 2026-05-06 13:44 | 24.87379 | 51.65016 | 12518 ft | 325 kts | 59° |
| 2026-05-06 13:44 | 24.88455 | 51.67176 | 12264 ft | 319 kts | 60° |
| 2026-05-06 13:44 | 24.89502 | 51.69287 | 12067 ft | 305 kts | 59° |
| 2026-05-06 13:45 | 24.90490 | 51.71271 | 11782 ft | 291 kts | 59° |
| 2026-05-06 13:45 | 24.92407 | 51.75079 | 10770 ft | 282 kts | 59° |
| 2026-05-06 13:45 | 24.93357 | 51.76955 | 10156 ft | 281 kts | 59° |
| 2026-05-06 13:46 | 24.94304 | 51.78823 | 9587 ft | 277 kts | 59° |
| 2026-05-06 13:46 | 24.95240 | 51.80667 | 8990 ft | 273 kts | 60° |
| 2026-05-06 13:46 | 24.96188 | 51.82453 | 8293 ft | 269 kts | 52° |
| 2026-05-06 13:46 | 24.97604 | 51.83752 | 7616 ft | 264 kts | 23° |
| 2026-05-06 13:47 | 24.99388 | 51.84099 | 7182 ft | 265 kts | 355° |
| 2026-05-06 13:47 | 25.01109 | 51.83431 | 6950 ft | 264 kts | 327° |
| 2026-05-06 13:47 | 25.02356 | 51.81989 | 6743 ft | 258 kts | 307° |
| 2026-05-06 13:47 | 25.03292 | 51.80375 | 6330 ft | 248 kts | 303° |
| 2026-05-06 13:48 | 25.04156 | 51.78766 | 5890 ft | 240 kts | 303° |
| 2026-05-06 13:48 | 25.04984 | 51.77197 | 5436 ft | 233 kts | 303° |
| 2026-05-06 13:48 | 25.05788 | 51.75664 | 4933 ft | 229 kts | 302° |
| 2026-05-06 13:48 | 25.06584 | 51.74145 | 4396 ft | 227 kts | 302° |
| 2026-05-06 13:49 | 25.07374 | 51.72645 | 3864 ft | 225 kts | 302° |
| 2026-05-06 13:49 | 25.08165 | 51.71164 | 3318 ft | 223 kts | 308° |
| 2026-05-06 13:49 | 25.09281 | 51.70093 | 2827 ft | 213 kts | 333° |
| 2026-05-06 13:49 | 25.10560 | 51.69358 | 2656 ft | 204 kts | 336° |
| 2026-05-06 13:50 | 25.11795 | 51.68751 | 2585 ft | 188 kts | 339° |
| 2026-05-06 13:50 | 25.12983 | 51.68218 | 2489 ft | 178 kts | 340° |
| 2026-05-06 13:50 | 25.14125 | 51.67713 | 2292 ft | 176 kts | 340° |
| 2026-05-06 13:50 | 25.15260 | 51.67212 | 2064 ft | 174 kts | 340° |
| 2026-05-06 13:51 | 25.16337 | 51.66738 | 1842 ft | 158 kts | 340° |
| 2026-05-06 13:51 | 25.17345 | 51.66294 | 1647 ft | 155 kts | 340° |
| 2026-05-06 13:51 | 25.18327 | 51.65862 | 1447 ft | 153 kts | 339° |
| 2026-05-06 13:51 | 25.19314 | 51.65425 | 1272 ft | 153 kts | 340° |
| 2026-05-06 13:52 | 25.20291 | 51.64994 | 1069 ft | 150 kts | 339° |
| 2026-05-06 13:52 | 25.21265 | 51.64563 | 896 ft | 152 kts | 340° |
| 2026-05-06 13:52 | 25.22238 | 51.64136 | 720 ft | 150 kts | 340° |
| 2026-05-06 13:52 | 25.23209 | 51.63706 | 534 ft | 150 kts | 340° |
| 2026-05-06 13:53 | 25.24175 | 51.63277 | 324 ft | 150 kts | 339° |
| 2026-05-06 13:53 | 25.25133 | 51.62861 | 159 ft | 149 kts | 342° |
| 2026-05-06 13:53 | 25.26101 | 51.62451 | 41 ft | 144 kts | 339° |
| 2026-05-06 13:53 | 25.26915 | 51.62091 | 30 ft | 99 kts | 339° |
| 2026-05-06 13:54 | 25.27353 | 51.61868 | 27 ft | 41 kts | 319° |
| 2026-05-06 13:54 | 25.27486 | 51.61703 | 28 ft | 16 kts | 308° |
| 2026-05-06 13:54 | 25.27545 | 51.61614 | 27 ft | 12 kts | 294° |
| 2026-05-06 13:54 | 25.27529 | 51.61520 | 27 ft | 13 kts | 246° |
| 2026-05-06 13:55 | 25.27495 | 51.61430 | 27 ft | 13 kts | 249° |
| 2026-05-06 13:55 | 25.27462 | 51.61336 | 27 ft | 13 kts | 248° |
| 2026-05-06 13:55 | 25.27429 | 51.61243 | 27 ft | 13 kts | 248° |
| 2026-05-06 13:55 | 25.27394 | 51.61151 | 27 ft | 13 kts | 248° |
| 2026-05-06 13:56 | 25.27359 | 51.61086 | 27 ft | 6 kts | 202° |
| 2026-05-06 13:56 | 25.27313 | 51.61092 | 27 ft | 8 kts | 162° |
| 2026-05-06 13:56 | 25.27259 | 51.61114 | 27 ft | 9 kts | 159° |
| 2026-05-06 13:56 | 25.27201 | 51.61121 | 27 ft | 9 kts | 204° |
| 2026-05-06 13:57 | 25.27142 | 51.61100 | 27 ft | 10 kts | 170° |
| 2026-05-06 13:57 | 25.27093 | 51.61123 | 27 ft | 7 kts | 156° |
| 2026-05-06 13:57 | 25.27082 | 51.61128 | 27 ft | 0 kts | 157° |